Friday, May 25, 2018, 7:25 PM CDT
Back to Local

KUGN, Chicago/waukegan Regional

Location: Waukegan, IL, United States Lat: 42.417
Local Time: 7:25 PM CDT ( 0:25 GMT) Lon: -87.867
Time Zone: US/Central Elev: 728 ft

Show me the last for .
Show Decoded

2018-05-25 18:55 METAR KUGN 252355Z 18007KT 10SM CLR 24/14 A2975 RMK AO2 SLP065 T02440144 10306
                 20244 55017 =
2018-05-25 17:55 METAR KUGN 252255Z 15007KT 10SM CLR 26/15 A2975 RMK AO2 SLP064 T02560150 =
2018-05-25 16:55 METAR KUGN 252155Z 15008KT 10SM CLR 27/16 A2978 RMK AO2 SLP072 T02720156 =
2018-05-25 15:55 METAR KUGN 252055Z 13008KT 10SM FEW070 27/16 A2980 RMK AO2 SLP082 T02670161
                 58023 =
2018-05-25 14:55 METAR KUGN 251955Z VRB05KT 10SM SCT070 31/16 A2983 RMK AO2 SLP088 T03060156 =
2018-05-25 13:55 METAR KUGN 251855Z 23008KT 10SM FEW070 30/17 A2985 RMK AO2 SLP098 T03000167 =
2018-05-25 12:55 METAR KUGN 251755Z COR 24007G19KT 210V280 10SM SCT040 30/16 A2987 RMK AO2 SLP105
                 T03000161 10300 20200 58013 =
2018-05-25 11:55 METAR KUGN 251655Z COR 23012G17KT 10SM FEW030 29/17 A2990 RMK AO2 SLP113
                 T02940172 =
2018-05-25 10:55 METAR KUGN 251555Z 23011KT 10SM CLR 28/17 A2991 RMK AO2 SLP115 T02830172 =
2018-05-25 09:55 METAR KUGN 251455Z 22010KT 10SM CLR 27/17 A2991 RMK AO2 SLP118 T02720172 58005 =
2018-05-25 08:55 METAR KUGN 251355Z 23006KT 10SM CLR 26/16 A2993 RMK AO2 SLP124 T02560161 =
2018-05-25 07:55 METAR KUGN 251255Z 23007KT 10SM CLR 22/15 A2993 RMK AO2 SLP127 T02220150 =
2018-05-25 06:55 METAR KUGN 251155Z 23007KT 10SM CLR 20/13 A2993 RMK AO2 SLP125 T02000133 10200
                 20161 56012 =
2018-05-25 05:55 METAR KUGN 251055Z 23008KT 8SM CLR 19/12 A2994 RMK AO2 SLP128 T01890122 =
2018-05-25 04:55 METAR KUGN 250955Z AUTO 23007KT 9SM CLR 19/12 A2995 RMK AO2 SLP131 T01890117 =
2018-05-25 03:55 METAR KUGN 250855Z AUTO 23007KT 8SM CLR 19/12 A2996 RMK AO2 SLP138 T01890122
                 56016 =
2018-05-25 02:55 METAR KUGN 250755Z AUTO 22007KT 10SM CLR 19/12 A2998 RMK AO2 SLP142 T01890122 =
2018-05-25 01:55 METAR KUGN 250655Z AUTO 22005KT 10SM CLR 16/12 A2999 RMK AO2 SLP147 T01610122 =
2018-05-25 00:55 METAR KUGN 250555Z AUTO 22005KT 10SM CLR 17/13 A3001 RMK AO2 SLP155 T01670128
                 10228 20167 402500100 56005 =
2018-05-24 23:55 METAR KUGN 250455Z AUTO 22003KT 10SM CLR 18/12 A3002 RMK AO2 SLP155 T01780122 =
2018-05-24 22:55 METAR KUGN 250355Z AUTO 17007KT 10SM CLR 21/12 A3002 RMK AO2 SLP155 T02060117 =
2018-05-24 21:55 METAR KUGN 250255Z AUTO 16007KT 10SM CLR 19/12 A3003 RMK AO2 SLP159 T01940117
                 56004 =
2018-05-24 20:55 METAR KUGN 250155Z AUTO 15004KT 10SM CLR 19/11 A3003 RMK AO2 SLP159 T01940111 =
2018-05-24 19:55 METAR KUGN 250055Z 13005KT 10SM CLR 20/12 A3003 RMK AO2 SLP160 LAST T02000117 =

Support USWX by starting your Amazon purchase here.